createdAt,value
2018-07-08T00:00:41.745Z,7.27
2018-07-08T00:04:14.994Z,7.07
2018-07-08T00:07:49.256Z,7.67
2018-07-08T00:11:22.495Z,6.73
2018-07-08T00:14:55.732Z,7.23
2018-07-08T00:18:28.990Z,7.50
2018-07-08T00:22:02.211Z,7.80
2018-07-08T00:25:35.485Z,7.50
2018-07-08T00:29:08.708Z,6.50
2018-07-08T00:32:41.944Z,7.90
2018-07-08T00:36:15.160Z,6.63
2018-07-08T00:39:48.438Z,6.43
2018-07-08T00:43:21.697Z,11.43
2018-07-08T00:46:54.676Z,6.20
2018-07-08T00:50:27.917Z,6.33
2018-07-08T00:54:01.391Z,6.37
2018-07-08T00:57:35.050Z,8.00
2018-07-08T01:01:08.289Z,9.43
2018-07-08T01:04:41.525Z,8.10
2018-07-08T01:08:14.756Z,8.60
2018-07-08T01:11:47.990Z,7.50
2018-07-08T01:15:21.348Z,7.87
2018-07-08T01:18:54.585Z,8.00
2018-07-08T01:22:27.884Z,7.67
2018-07-08T01:26:08.666Z,7.53
2018-07-08T01:29:41.898Z,8.23
2018-07-08T01:33:15.152Z,7.27
2018-07-08T01:36:48.379Z,7.83
2018-07-08T01:40:21.603Z,7.07
2018-07-08T01:43:54.827Z,7.80
2018-07-08T01:47:28.056Z,8.07
2018-07-08T01:51:01.273Z,7.93
2018-07-08T01:54:34.523Z,7.80
2018-07-08T01:58:07.758Z,7.63
2018-07-08T02:01:41.011Z,7.97
2018-07-08T02:05:14.268Z,7.93
2018-07-08T02:08:47.395Z,7.77
2018-07-08T02:12:20.650Z,8.17
2018-07-08T02:15:53.640Z,7.73
2018-07-08T02:19:26.894Z,7.90
2018-07-08T02:23:00.141Z,8.10
2018-07-08T02:26:33.368Z,8.07
2018-07-08T02:30:06.659Z,7.93
2018-07-08T02:33:39.913Z,8.70
2018-07-08T02:37:13.174Z,7.93
2018-07-08T02:40:46.385Z,9.50
2018-07-08T02:44:19.612Z,9.27
2018-07-08T02:47:52.865Z,6.73
2018-07-08T02:51:26.129Z,8.40
2018-07-08T02:54:59.442Z,7.50
2018-07-08T02:58:32.862Z,7.07
2018-07-08T03:02:06.123Z,6.33
2018-07-08T03:05:39.384Z,7.23
2018-07-08T03:09:12.608Z,6.90
2018-07-08T03:12:46.773Z,7.50
2018-07-08T03:16:19.747Z,7.80
2018-07-08T03:19:52.988Z,7.07
2018-07-08T03:23:26.225Z,7.90
2018-07-08T03:26:59.462Z,7.63
2018-07-08T03:30:32.704Z,6.57
2018-07-08T03:34:05.933Z,8.10
2018-07-08T03:37:39.154Z,8.90
2018-07-08T03:41:12.383Z,9.93
2018-07-08T03:44:45.631Z,14.80
2018-07-08T03:48:18.847Z,9.30
2018-07-08T03:51:52.085Z,6.57
2018-07-08T03:55:25.326Z,10.40
2018-07-08T03:58:58.556Z,7.10
2018-07-08T04:02:31.784Z,8.00
2018-07-08T04:06:05.269Z,8.23
2018-07-08T04:09:38.244Z,7.20
2018-07-08T04:13:11.460Z,8.13
2018-07-08T04:16:45.081Z,6.80
2018-07-08T04:20:18.324Z,7.40
2018-07-08T04:23:51.565Z,7.60
2018-07-08T04:27:24.790Z,7.83
2018-07-08T04:30:58.031Z,8.13
2018-07-08T04:34:32.420Z,7.60
2018-07-08T04:38:05.644Z,7.80
2018-07-08T04:41:38.903Z,7.27
2018-07-08T04:45:12.127Z,9.13
2018-07-08T04:48:45.352Z,8.33
2018-07-08T04:52:18.572Z,8.53
2018-07-08T04:55:51.812Z,8.47
2018-07-08T04:59:25.035Z,7.93
2018-07-08T05:02:58.256Z,9.00
2018-07-08T05:06:31.482Z,8.40
2018-07-08T05:10:04.469Z,7.83
2018-07-08T05:13:37.716Z,8.37
2018-07-08T05:17:11.177Z,9.60
2018-07-08T05:20:44.448Z,8.07
2018-07-08T05:24:17.704Z,8.23
2018-07-08T05:27:50.977Z,8.13
2018-07-08T05:31:24.204Z,7.50
2018-07-08T05:34:57.451Z,8.50
2018-07-08T05:38:30.688Z,8.73
2018-07-08T05:42:03.908Z,7.50
2018-07-08T05:45:37.144Z,7.57
2018-07-08T05:49:10.367Z,7.23
2018-07-08T05:52:43.596Z,7.53
2018-07-08T05:56:16.595Z,7.33
2018-07-08T05:59:49.833Z,6.80
2018-07-08T06:03:23.077Z,7.63
2018-07-08T06:06:56.308Z,6.23
2018-07-08T06:10:29.535Z,7.13
2018-07-08T06:14:02.763Z,6.50
2018-07-08T06:17:36.014Z,6.40
2018-07-08T06:21:09.240Z,6.73
2018-07-08T06:24:42.477Z,6.27
2018-07-08T06:28:15.479Z,6.77
2018-07-08T06:31:48.729Z,6.53
2018-07-08T06:35:21.949Z,6.23
2018-07-08T06:38:55.216Z,7.83
2018-07-08T06:42:28.429Z,6.20
2018-07-08T06:46:01.656Z,6.10
2018-07-08T06:49:34.889Z,7.40
2018-07-08T06:53:08.103Z,5.90
2018-07-08T06:56:41.349Z,7.00
2018-07-08T07:00:14.576Z,6.13
2018-07-08T07:03:47.917Z,5.67
2018-07-08T07:07:21.271Z,5.90
2018-07-08T07:10:54.555Z,8.63
2018-07-08T07:14:27.905Z,8.43
2018-07-08T07:18:01.130Z,6.20
2018-07-08T07:21:34.449Z,6.07
2018-07-08T07:25:08.308Z,10.20
2018-07-08T07:28:41.610Z,5.63
2018-07-08T07:32:14.789Z,5.80
2018-07-08T07:35:47.760Z,5.30
2018-07-08T07:39:21.003Z,5.50
2018-07-08T07:42:54.472Z,5.20
2018-07-08T07:46:27.789Z,4.87
2018-07-08T07:50:00.761Z,7.80
2018-07-08T07:53:33.996Z,6.10
2018-07-08T07:57:07.300Z,4.20
2018-07-08T08:00:40.583Z,4.23
2018-07-08T08:04:13.829Z,4.07
2018-07-08T08:07:47.066Z,5.17
2018-07-08T08:11:20.544Z,4.07
2018-07-08T08:14:53.972Z,4.33
2018-07-08T08:18:27.253Z,4.63
2018-07-08T08:22:00.484Z,3.97
2018-07-08T08:25:33.534Z,4.37
2018-07-08T08:29:06.800Z,3.73
2018-07-08T08:32:40.059Z,4.10
2018-07-08T08:36:13.300Z,5.00
2018-07-08T08:39:46.524Z,3.97
2018-07-08T08:43:19.752Z,3.63
2018-07-08T08:46:52.992Z,4.60
2018-07-08T08:50:26.236Z,3.30
2018-07-08T08:53:59.459Z,3.67
2018-07-08T08:57:32.684Z,5.03
2018-07-08T09:01:05.928Z,4.30
2018-07-08T09:04:40.019Z,4.70
2018-07-08T09:08:13.271Z,3.10
2018-07-08T09:11:46.828Z,4.03
2018-07-08T09:15:20.152Z,3.40
2018-07-08T09:18:53.395Z,4.00
2018-07-08T09:22:26.644Z,3.30
2018-07-08T09:25:59.880Z,2.17
2018-07-08T09:29:33.213Z,4.30
2018-07-08T09:33:06.313Z,3.33
2018-07-08T09:36:40.772Z,2.00
2018-07-08T09:40:14.040Z,2.13
2018-07-08T09:43:47.431Z,1.90
2018-07-08T09:47:20.408Z,2.00
2018-07-08T09:50:53.652Z,1.73
2018-07-08T09:54:26.884Z,2.70
2018-07-08T09:58:00.129Z,3.63
2018-07-08T10:01:50.138Z,4.57
2018-07-08T10:05:23.364Z,2.20
2018-07-08T10:08:56.597Z,2.37
2018-07-08T10:12:29.834Z,2.00
2018-07-08T10:16:03.082Z,2.20
2018-07-08T10:19:36.353Z,2.27
2018-07-08T10:23:09.561Z,2.50
2018-07-08T10:26:42.808Z,5.50
2018-07-08T10:30:16.318Z,2.10
2018-07-08T10:33:55.718Z,2.30
2018-07-08T10:37:29.243Z,5.67
2018-07-08T10:41:02.498Z,4.30
2018-07-08T10:44:36.073Z,2.87
2018-07-08T10:48:09.325Z,2.00
2018-07-08T10:51:42.600Z,1.70
2018-07-08T10:55:18.375Z,2.10
2018-07-08T10:58:51.639Z,1.40
2018-07-08T11:02:24.611Z,1.53
2018-07-08T11:05:57.896Z,4.33
2018-07-08T11:09:31.186Z,2.97
2018-07-08T11:13:04.437Z,2.50
2018-07-08T11:16:37.696Z,1.70
2018-07-08T11:20:11.136Z,1.63
2018-07-08T11:23:44.118Z,2.10
2018-07-08T11:27:17.412Z,1.70
2018-07-08T11:30:50.649Z,2.60
2018-07-08T11:34:23.884Z,2.13
2018-07-08T11:37:57.132Z,2.33
2018-07-08T11:41:30.411Z,2.10
2018-07-08T11:45:03.908Z,2.10
2018-07-08T11:48:37.168Z,2.40
2018-07-08T11:52:10.448Z,3.00
2018-07-08T11:55:43.681Z,2.27
2018-07-08T11:59:16.921Z,1.20
2018-07-08T12:02:50.210Z,2.77
2018-07-08T12:06:23.518Z,2.00
2018-07-08T12:09:56.736Z,3.27
2018-07-08T12:13:29.715Z,1.47
2018-07-08T12:17:03.044Z,2.27
2018-07-08T12:20:36.545Z,3.40
2018-07-08T12:24:09.797Z,1.93
2018-07-08T12:27:43.069Z,2.00
2018-07-08T12:31:16.276Z,1.90
2018-07-08T12:34:49.621Z,3.33
2018-07-08T12:38:22.864Z,1.40
2018-07-08T12:41:56.100Z,1.57
2018-07-08T12:45:29.464Z,1.23
2018-07-08T12:49:03.104Z,1.40
2018-07-08T12:52:36.335Z,2.00
2018-07-08T12:56:09.571Z,1.60
2018-07-08T12:59:43.180Z,1.20
2018-07-08T13:03:16.634Z,1.60
2018-07-08T13:06:50.147Z,1.77
2018-07-08T13:10:23.384Z,1.67
2018-07-08T13:13:56.977Z,1.33
2018-07-08T13:17:30.159Z,1.30
2018-07-08T13:21:03.801Z,2.20
2018-07-08T13:24:38.333Z,2.33
2018-07-08T13:28:11.821Z,1.83
2018-07-08T13:31:44.935Z,2.30
2018-07-08T13:35:18.803Z,1.60
2018-07-08T13:38:52.367Z,1.30
2018-07-08T13:42:25.613Z,1.47
2018-07-08T13:45:58.877Z,1.60
2018-07-08T13:49:32.273Z,1.50
2018-07-08T13:53:05.543Z,2.70
2018-07-08T13:56:38.772Z,2.10
2018-07-08T14:00:12.040Z,2.47
2018-07-08T14:03:45.211Z,2.23
2018-07-08T14:07:18.522Z,1.50
2018-07-08T14:10:52.055Z,1.90
2018-07-08T14:14:25.508Z,2.03
2018-07-08T14:17:58.749Z,2.30
2018-07-08T14:21:33.567Z,3.60
2018-07-08T14:25:06.614Z,2.00
2018-07-08T14:28:39.862Z,2.30
2018-07-08T14:32:13.493Z,1.93
2018-07-08T14:35:46.459Z,1.97
2018-07-08T14:39:19.713Z,1.90
2018-07-08T14:42:53.018Z,1.77
2018-07-08T14:46:26.303Z,1.67
2018-07-08T14:49:59.557Z,1.80
2018-07-08T14:53:32.859Z,1.93
2018-07-08T14:57:06.163Z,2.13
2018-07-08T15:00:39.461Z,2.63
2018-07-08T15:04:12.765Z,2.17
2018-07-08T15:07:46.040Z,2.03
2018-07-08T15:11:19.348Z,2.00
2018-07-08T15:14:52.633Z,3.03
2018-07-08T15:18:26.045Z,2.80
2018-07-08T15:21:59.339Z,1.97
2018-07-08T15:25:32.670Z,2.30
2018-07-08T15:29:06.025Z,2.00
2018-07-08T15:32:39.481Z,2.33
2018-07-08T15:36:13.533Z,2.27
2018-07-08T15:39:46.905Z,2.03
2018-07-08T15:43:20.147Z,3.43
2018-07-08T15:46:53.484Z,2.67
2018-07-08T15:50:26.669Z,1.73
2018-07-08T15:53:59.992Z,2.57
2018-07-08T15:57:33.241Z,2.10
2018-07-08T16:01:06.507Z,2.27
2018-07-08T16:04:39.768Z,2.10
2018-07-08T16:08:13.004Z,2.00
2018-07-08T16:11:46.274Z,1.90
2018-07-08T16:15:19.488Z,1.70
2018-07-08T16:18:52.767Z,2.60
2018-07-08T16:22:26.003Z,2.37
2018-07-08T16:25:59.825Z,2.00
2018-07-08T16:29:33.085Z,2.23
2018-07-08T16:33:06.330Z,2.33
2018-07-08T16:36:39.829Z,2.10
2018-07-08T16:40:23.929Z,1.93
2018-07-08T16:43:57.234Z,2.00
2018-07-08T16:47:30.495Z,2.07
2018-07-08T16:51:03.773Z,2.13
2018-07-08T16:54:36.999Z,2.60
2018-07-08T16:58:10.357Z,2.67
2018-07-08T17:01:43.612Z,2.20
2018-07-08T17:05:16.864Z,2.27
2018-07-08T17:08:50.141Z,2.10
2018-07-08T17:12:23.399Z,3.27
2018-07-08T17:15:56.642Z,2.10
2018-07-08T17:19:29.967Z,4.70
2018-07-08T17:23:03.229Z,2.80
2018-07-08T17:26:36.659Z,2.67
2018-07-08T17:30:10.207Z,2.53
2018-07-08T17:33:43.460Z,2.30
2018-07-08T17:37:16.705Z,3.60
2018-07-08T17:40:49.965Z,2.73
2018-07-08T17:44:23.210Z,2.40
2018-07-08T17:47:56.492Z,2.60
2018-07-08T17:51:29.724Z,2.73
2018-07-08T17:55:03.085Z,2.60
2018-07-08T17:58:36.343Z,3.10
2018-07-08T18:02:09.612Z,3.47
2018-07-08T18:05:43.543Z,3.43
2018-07-08T18:09:16.854Z,4.60
2018-07-08T18:12:50.096Z,3.20
2018-07-08T18:16:23.475Z,3.47
2018-07-08T18:19:56.748Z,4.13
2018-07-08T18:23:29.996Z,6.10
2018-07-08T18:27:03.246Z,37.97
2018-07-08T18:30:37.427Z,7.70
2018-07-08T18:34:10.672Z,7.63
2018-07-08T18:37:44.728Z,5.73
2018-07-08T18:41:17.999Z,6.63
2018-07-08T18:44:51.288Z,9.23
2018-07-08T18:48:24.826Z,6.60
2018-07-08T18:51:58.087Z,5.50
2018-07-08T18:55:31.374Z,6.23
2018-07-08T18:59:04.621Z,5.67
2018-07-08T19:02:37.860Z,5.03
2018-07-08T19:06:11.109Z,5.57
2018-07-08T19:09:44.357Z,5.47
2018-07-08T19:13:18.128Z,6.23
2018-07-08T19:16:51.459Z,5.63
2018-07-08T19:20:24.688Z,5.23
2018-07-08T19:23:57.952Z,7.40
2018-07-08T19:27:31.536Z,5.50
2018-07-08T19:31:05.383Z,5.23
2018-07-08T19:34:38.659Z,6.10
2018-07-08T19:38:11.915Z,5.13
2018-07-08T19:41:45.169Z,5.70
2018-07-08T19:45:18.440Z,7.77
2018-07-08T19:48:51.700Z,6.00
2018-07-08T19:52:25.432Z,5.97
2018-07-08T19:55:58.436Z,5.53
2018-07-08T19:59:31.435Z,6.57
2018-07-08T20:03:04.713Z,5.10
2018-07-08T20:06:37.750Z,5.77
2018-07-08T20:10:10.992Z,6.27
2018-07-08T20:13:44.284Z,6.20
2018-07-08T20:17:17.613Z,8.03
2018-07-08T20:20:50.878Z,7.50
2018-07-08T20:24:24.219Z,6.47
2018-07-08T20:27:57.465Z,7.00
2018-07-08T20:31:30.725Z,6.70
2018-07-08T20:35:03.992Z,7.00
2018-07-08T20:38:37.516Z,6.93
2018-07-08T20:42:10.772Z,6.20
2018-07-08T20:45:44.147Z,6.20
2018-07-08T20:49:17.437Z,7.17
2018-07-08T20:52:50.423Z,8.97
2018-07-08T20:56:23.976Z,5.97
2018-07-08T20:59:57.245Z,6.80
2018-07-08T21:03:30.291Z,5.40
2018-07-08T21:07:03.545Z,6.10
2018-07-08T21:10:36.876Z,6.43
2018-07-08T21:14:13.289Z,5.97
2018-07-08T21:17:46.536Z,7.13
2018-07-08T21:21:19.832Z,5.90
2018-07-08T21:24:53.160Z,6.27
2018-07-08T21:28:26.416Z,6.70
2018-07-08T21:31:59.664Z,6.80
2018-07-08T21:35:32.904Z,6.40
2018-07-08T21:39:07.359Z,5.53
2018-07-08T21:42:40.589Z,5.50
2018-07-08T21:46:13.824Z,8.20
2018-07-08T21:49:47.084Z,7.30
2018-07-08T21:53:20.328Z,6.93
2018-07-08T21:56:53.581Z,7.33
2018-07-08T22:00:30.720Z,6.53
2018-07-08T22:04:03.735Z,5.87
2018-07-08T22:07:42.480Z,7.27
2018-07-08T22:11:15.772Z,7.10
2018-07-08T22:14:49.100Z,7.20
2018-07-08T22:18:22.363Z,7.90
2018-07-08T22:21:55.694Z,7.20
2018-07-08T22:25:28.927Z,8.27
2018-07-08T22:29:02.199Z,8.10
2018-07-08T22:32:35.441Z,8.37
2018-07-08T22:36:08.664Z,7.30
2018-07-08T22:39:41.910Z,7.93
2018-07-08T22:43:15.200Z,7.33
2018-07-08T22:46:48.439Z,6.73
2018-07-08T22:50:21.680Z,6.17
2018-07-08T22:53:55.388Z,7.10
2018-07-08T22:57:28.629Z,7.67
2018-07-08T23:01:13.120Z,6.87
2018-07-08T23:04:46.437Z,7.40
2018-07-08T23:08:19.688Z,9.10
2018-07-08T23:11:52.920Z,7.10
2018-07-08T23:15:26.170Z,8.37
2018-07-08T23:18:59.495Z,8.57
2018-07-08T23:22:43.995Z,7.70
2018-07-08T23:26:17.240Z,7.63
2018-07-08T23:29:50.488Z,6.87
2018-07-08T23:33:23.730Z,6.87
2018-07-08T23:36:57.000Z,6.17
2018-07-08T23:40:30.256Z,7.27
2018-07-08T23:44:03.500Z,8.27
2018-07-08T23:47:36.738Z,8.97
2018-07-08T23:51:09.986Z,7.90
2018-07-08T23:54:43.226Z,8.23
2018-07-08T23:58:16.492Z,7.70
